| time (UTC) | temp F | wind direction | speed knots | gust knots | rain 1hr in | rain 24hr in | rain mn in | humidity % | barometer mb |
| 20260504200128 | 68 | 1 | 0.0 | 0.0 | 0.00 | 0.00 | 0.00 | 53 | 1016.8 |
| 20260504195118 | 68 | 1 | 0.0 | 0.0 | 0.00 | 0.00 | 0.00 | 53 | 1016.7 |
| 20260504194108 | 68 | 1 | 0.0 | 0.0 | 0.00 | 0.00 | 0.00 | 55 | 1016.7 |
| 20260504193058 | 68 | 1 | 0.0 | 0.0 | 0.00 | 0.00 | 0.00 | 55 | 1016.7 |
| 20260504192048 | 68 | 1 | 0.0 | 0.0 | 0.00 | 0.00 | 0.00 | 55 | 1016.6 |
| 20260504191038 | 67 | 1 | 0.0 | 0.0 | 0.00 | 0.00 | 0.00 | 57 | 1016.7 |
| 20260504190028 | 67 | 1 | 0.0 | 0.0 | 0.00 | 0.00 | 0.00 | 58 | 1016.6 |
| 20260504185018 | 66 | 1 | 0.0 | 0.0 | 0.00 | 0.00 | 0.00 | 58 | 1016.7 |
| 20260504184008 | 65 | 1 | 0.0 | 0.0 | 0.00 | 0.00 | 0.00 | 59 | 1016.6 |
| 20260504182958 | 65 | 1 | 0.0 | 0.0 | 0.00 | 0.00 | 0.00 | 60 | 1016.5 |
| 20260504181948 | 64 | 1 | 0.0 | 0.0 | 0.00 | 0.00 | 0.00 | 62 | 1016.5 |
| 20260504180938 | 63 | 1 | 0.0 | 0.0 | 0.00 | 0.00 | 0.00 | 63 | 1016.4 |
| 20260504175929 | 63 | 1 | 0.0 | 0.0 | 0.00 | 0.00 | 0.00 | 63 | 1016.4 |
| 20260504174918 | 62 | 1 | 0.0 | 0.0 | 0.00 | 0.00 | 0.00 | 64 | 1016.1 |
| 20260504173908 | 62 | 1 | 0.0 | 0.0 | 0.00 | 0.00 | 0.00 | 66 | 1016.0 |
| 20260504172858 | 61 | 1 | 0.0 | 0.0 | 0.00 | 0.00 | 0.00 | 66 | 1015.9 |
| 20260504171848 | 61 | 1 | 0.0 | 0.0 | 0.00 | 0.00 | 0.00 | 66 | 1015.9 |
| 20260504170838 | 61 | 1 | 0.0 | 0.0 | 0.00 | 0.00 | 0.00 | 67 | 1015.8 |
| 20260504150638 | 53 | 2 | 0.0 | 0.0 | 0.00 | 0.01 | 0.00 | 73 | 1015.6 |
| 20260504140538 | 48 | 2 | 0.0 | 0.0 | 0.00 | 0.01 | 0.00 | 79 | 1015.5 |
| 20260504130438 | 48 | 2 | 0.0 | 0.0 | 0.00 | 0.01 | 0.00 | 78 | 1015.0 |
| 20260504110238 | 48 | 2 | 0.0 | 0.0 | 0.00 | 0.01 | 0.00 | 78 | 1015.0 |
| 20260504100138 | 48 | 2 | 0.0 | 0.0 | 0.00 | 0.01 | 0.00 | 76 | 1014.9 |
| 20260504081958 | 50 | 2 | 0.0 | 0.0 | 0.00 | 0.01 | 0.00 | 74 | 1015.7 |
| 20260504080948 | 50 | 2 | 0.0 | 0.0 | 0.00 | 0.01 | 0.00 | 74 | 1015.7 |
| 20260504050648 | 55 | 2 | 0.0 | 0.0 | 0.00 | 0.01 | 0.01 | 68 | 1015.6 |
| 20260504045638 | 55 | 1 | 0.0 | 0.0 | 0.00 | 0.01 | 0.01 | 68 | 1015.6 |
| 20260504044628 | 55 | 2 | 0.0 | 0.0 | 0.00 | 0.01 | 0.01 | 67 | 1015.6 |
| 20260504043618 | 56 | 2 | 0.0 | 0.0 | 0.00 | 0.01 | 0.01 | 67 | 1015.5 |
| 20260504042608 | 56 | 1 | 0.0 | 0.0 | 0.00 | 0.01 | 0.01 | 66 | 1015.4 |
| 20260504041558 | 57 | 1 | 0.0 | 0.0 | 0.00 | 0.01 | 0.01 | 65 | 1015.2 |
| 20260504040548 | 57 | 1 | 0.0 | 0.0 | 0.00 | 0.01 | 0.01 | 65 | 1015.1 |
| 20260504035538 | 57 | 1 | 0.0 | 0.0 | 0.00 | 0.01 | 0.01 | 65 | 1015.0 |
| 20260504034528 | 58 | 2 | 0.0 | 0.0 | 0.00 | 0.01 | 0.01 | 65 | 1015.0 |
| 20260504033518 | 58 | 1 | 0.0 | 0.0 | 0.00 | 0.01 | 0.01 | 64 | 1014.9 |
| 20260504032508 | 58 | 1 | 0.0 | 0.0 | 0.00 | 0.01 | 0.01 | 64 | 1014.8 |
| 20260504031458 | 58 | 1 | 0.0 | 0.0 | 0.00 | 0.01 | 0.01 | 64 | 1014.9 |
| 20260504030448 | 59 | 1 | 0.0 | 0.0 | 0.00 | 0.01 | 0.01 | 62 | 1014.8 |
| 20260504025438 | 59 | 1 | 0.0 | 0.0 | 0.00 | 0.01 | 0.01 | 61 | 1014.6 |
| 20260504024428 | 60 | 1 | 0.0 | 0.0 | 0.00 | 0.01 | 0.01 | 60 | 1014.5 |
| 20260504023418 | 60 | 1 | 0.0 | 0.0 | 0.00 | 0.01 | 0.01 | 59 | 1014.5 |
| 20260504022408 | 61 | 1 | 0.0 | 0.0 | 0.00 | 0.01 | 0.01 | 57 | 1014.4 |
| 20260504021358 | 61 | 2 | 0.0 | 0.0 | 0.00 | 0.01 | 0.01 | 58 | 1014.4 |
| 20260504020348 | 61 | 2 | 0.0 | 0.0 | 0.00 | 0.01 | 0.01 | 58 | 1014.6 |
| 20260504015338 | 62 | 1 | 0.0 | 0.0 | 0.00 | 0.01 | 0.01 | 57 | 1014.7 |
| 20260504014328 | 62 | 1 | 0.0 | 0.0 | 0.00 | 0.01 | 0.01 | 57 | 1014.7 |
| 20260504013318 | 63 | 2 | 0.0 | 0.0 | 0.00 | 0.01 | 0.01 | 55 | 1014.7 |
| 20260504012308 | 63 | 1 | 0.0 | 0.0 | 0.00 | 0.01 | 0.01 | 53 | 1014.6 |
| 20260504011258 | 64 | 1 | 0.0 | 0.0 | 0.00 | 0.01 | 0.01 | 54 | 1014.7 |
| 20260504010248 | 64 | 2 | 0.0 | 0.0 | 0.00 | 0.01 | 0.01 | 53 | 1014.6 |
| 20260504005238 | 65 | 1 | 0.0 | 0.0 | 0.00 | 0.01 | 0.01 | 53 | 1014.6 |
| 20260504004228 | 65 | 1 | 0.0 | 0.0 | 0.00 | 0.01 | 0.01 | 51 | 1014.6 |
| 20260504003218 | 66 | 1 | 0.0 | 0.0 | 0.00 | 0.01 | 0.01 | 50 | 1014.5 |
| 20260504002208 | 66 | 1 | 0.0 | 0.0 | 0.00 | 0.01 | 0.01 | 50 | 1014.5 |
| 20260504001158 | 66 | 1 | 0.0 | 0.0 | 0.00 | 0.01 | 0.01 | 50 | 1014.5 |
| 20260504000148 | 67 | 1 | 0.0 | 0.0 | 0.00 | 0.01 | 0.01 | 49 | 1014.4 |
| 20260503235138 | 68 | 1 | 0.0 | 0.0 | 0.00 | 0.01 | 0.01 | 48 | 1014.4 |
| 20260503234128 | 68 | 1 | 0.0 | 0.0 | 0.00 | 0.01 | 0.01 | 48 | 1014.4 |
| 20260503233118 | 68 | 1 | 0.0 | 0.0 | 0.00 | 0.01 | 0.01 | 47 | 1014.3 |
| 20260503232108 | 68 | 1 | 0.0 | 0.0 | 0.00 | 0.01 | 0.01 | 48 | 1014.3 |
| 20260503231058 | 68 | 1 | 0.0 | 0.0 | 0.00 | 0.01 | 0.01 | 49 | 1014.3 |
| 20260503230048 | 68 | 1 | 0.0 | 0.0 | 0.00 | 0.01 | 0.01 | 49 | 1014.4 |
| 20260503225038 | 68 | 1 | 0.0 | 0.0 | 0.00 | 0.01 | 0.01 | 49 | 1014.5 |
| 20260503224028 | 68 | 1 | 0.0 | 0.0 | 0.00 | 0.01 | 0.01 | 47 | 1014.6 |
| 20260503223018 | 69 | 1 | 0.0 | 0.0 | 0.00 | 0.01 | 0.01 | 47 | 1014.6 |
| 20260503222008 | 69 | 1 | 0.0 | 0.0 | 0.00 | 0.01 | 0.01 | 44 | 1014.6 |
| 20260503220958 | 69 | 1 | 0.0 | 0.0 | 0.00 | 0.01 | 0.01 | 46 | 1014.7 |
| 20260503215948 | 68 | 1 | 0.0 | 0.0 | 0.00 | 0.01 | 0.01 | 48 | 1014.6 |
| 20260503214938 | 67 | 1 | 0.0 | 0.0 | 0.00 | 0.01 | 0.01 | 49 | 1014.6 |
| 20260503213928 | 67 | 0 | 0.0 | 0.0 | 0.00 | 0.01 | 0.01 | 51 | 1014.6 |
| 20260503212918 | 66 | 1 | 0.0 | 0.0 | 0.00 | 0.01 | 0.01 | 50 | 1014.5 |
| 20260503211908 | 66 | 1 | 0.0 | 0.0 | 0.00 | 0.01 | 0.01 | 52 | 1014.5 |
| 20260503210858 | 66 | 1 | 0.0 | 0.0 | 0.00 | 0.01 | 0.01 | 53 | 1014.5 |
| 20260503205848 | 66 | 1 | 0.0 | 0.0 | 0.00 | 0.01 | 0.01 | 52 | 1014.4 |
| 20260503204838 | 66 | 1 | 0.0 | 0.0 | 0.00 | 0.01 | 0.01 | 52 | 1014.5 |
| 20260503203828 | 66 | 1 | 0.0 | 0.0 | 0.00 | 0.01 | 0.01 | 55 | 1014.6 |
| 20260503202818 | 66 | 1 | 0.0 | 0.0 | 0.00 | 0.01 | 0.01 | 57 | 1014.6 |
| 20260503201808 | 65 | 1 | 0.0 | 0.0 | 0.00 | 0.01 | 0.01 | 58 | 1014.7 |
| 20260503200758 | 65 | 1 | 0.0 | 0.0 | 0.00 | 0.01 | 0.01 | 61 | 1014.7 |